Página principal
METAR-TAF:

METAR-TAF

Aeroportos :

Aeroporto Internacional do Cairo

Cairo, Egipto

latitude: 30-08N, longitude: 031-24E, altura: 64 m

Observação actual do tempo

O boletim foi feito há 13 minutos, às 16:00 UTC
Vento 5 kt de nordeste
Temperatura 25°C
Humidade 44%
Pressão 1017 hPa
Visibilidade 10 km ou mais
Nuvens fragmentadasa uma altura de 2500 ft

METAR: HECA 211600Z 04005KT 9999 BKN025 25/12 Q1017 NOSIG

Hora: 18:13 (16:13 UTC)

Previsão

O boletim foi feito há 5 horas e 13 minutos, às 11:00 UTC
Previsão válida de 21 às 12 UTC a 22 às 18 UTC
Vento 10 kt de nordeste
Visibilidade 10 km ou mais
Nuvens dispersasa uma altura de 2500 ft
Temporariamente
de 22 às 00 UTC a 22 às 06 UTC
Vento 3 kt com direcção variável
Visibilidade: 4000 m
bruma

TAF: HECA 211100Z 2112/2218 05010KT 9999 SCT025 TEMPO 2200/2206 VRB03KT 4000 HZ NSC

Observações e previsões do tempo de mais de 4000 aeroportos (mensagens METAR e TAF).

As estações disponíveis são os pontos amarelos e vermelhos sobre o mapa.

Mova o rato sobre o mapa para ver o nome da estação.

Depois clique no ponto para visualizar as observações e previsões meteorológicas.

Para alterar o mapa : clique nos botões verdes com uma cruz preta para aumentar o zoom; no botão verde com uma pitada de zoom; ou nas setas verdes para mapas adjacentes.


METAR-TAF: